Monday, November 20, 2017, 2:42 AM EST
Back to Local

KFZY, Fulton Oswego County Airport

Location: Fulton, NY, United States Lat: 43.35
Local Time: 2:42 AM EST ( 7:42 GMT) Lon: -76.383
Time Zone: US/Eastern Elev: 475 ft

Show me the last for .
Show Decoded

2017-11-20 01:54 METAR KFZY 200654Z AUTO 31010G20KT 10SM SCT030 BKN038 OVC075 00/M06 A2984 RMK
                 AO2 PK WND 30029/0605 UPB20E30SNE03 SLP111 P0000 T00001056 $ =
2017-11-20 00:54 METAR KFZY 200554Z AUTO 30015G23KT 10SM -SN SCT040 BKN050 OVC065 01/M06 A2982
                 RMK AO2 PK WND 30031/0507 SNB54 SLP101 P0000 60002 T00061061 10017 20006 51027 $
                 =
2017-11-19 23:54 METAR KFZY 200454Z AUTO 30023G32KT 10SM FEW042 OVC055 01/M07 A2979 RMK AO2 PK
                 WND 31032/0454 UPB12E14B32E52SNE12B14E19 SLP094 P0001 T00061067 401000006 $ =
2017-11-19 22:54 METAR KFZY 200354Z AUTO 28016G25KT 8SM -SN SCT031 BKN047 OVC055 01/M04 A2976 RMK
                 AO2 UPB25E35SNB42 SLP084 P0000 T00111044 $ =
2017-11-19 21:54 METAR KFZY 200254Z AUTO 28016G25KT 10SM SCT047 BKN055 01/M06 A2973 RMK AO2 PK
                 WND 28027/0223 SNB10E25 SLP074 P0000 60001 T00111061 51018 $ =
2017-11-19 20:54 METAR KFZY 200154Z AUTO 30011KT 10SM SCT025 BKN031 OVC050 01/M01 A2972 RMK AO2
                 SNE41 SLP069 P0001 T00111011 $ =
2017-11-19 20:41 METAR KFZY 200141Z AUTO 24006KT 9SM FEW008 BKN028 OVC048 01/M01 A2972 RMK AO2
                 SNE41 P0001 T00061006 $ =
2017-11-19 20:34 METAR KFZY 200134Z AUTO 29005KT 7SM -SN FEW008 BKN012 OVC047 01/M01 A2971 RMK
                 AO2 P0001 T00061006 $ =
2017-11-19 20:24 METAR KFZY 200124Z AUTO 30006G17KT 3SM -SN BR BKN008 BKN012 OVC028 01/M01 A2971
                 RMK AO2 P0001 T00061006 $ =
2017-11-19 20:21 METAR KFZY 200121Z AUTO 32009G17KT 1 1/4SM -SN BR BKN010 OVC028 01/M01 A2971 RMK
                 AO2 P0001 T00061006 $ =
2017-11-19 20:11 METAR KFZY 200111Z AUTO 29012G24KT 3/4SM -SN BR BKN012 BKN019 OVC026 01/M01
                 A2971 RMK AO2 P0001 T00061011 $ =
2017-11-19 20:09 METAR KFZY 200109Z AUTO 29015G24KT 1 1/4SM -SN BKN014 OVC028 01/M02 A2971 RMK
                 AO2 P0000 T00111017 $ =
2017-11-19 19:54 METAR KFZY 200054Z AUTO 29013G22KT 2 1/2SM -SN BKN022 OVC028 02/M02 A2970 RMK
                 AO2 SNB03 SLP062 P0000 T00171022 $ =
2017-11-19 19:41 METAR KFZY 200041Z AUTO 32011G19KT 4SM -SN OVC028 02/M03 A2969 RMK AO2 SNB03
                 P0000 T00221028 $ =
2017-11-19 18:54 METAR KFZY 192354Z AUTO 30011G21KT 10SM SCT033 BKN042 OVC049 03/M03 A2968 RMK
                 AO2 SNE01 SLP055 P0000 60001 T00281028 10033 20022 53016 $ =
2017-11-19 17:54 METAR KFZY 192254Z AUTO 30011G20KT 9SM -SN BKN036 OVC042 02/M02 A2966 RMK AO2
                 SNB51 SLP047 P0000 T00221022 $ =
2017-11-19 16:54 METAR KFZY 192154Z AUTO 30013G21KT 10SM BKN043 OVC080 03/M03 A2965 RMK AO2
                 SLP044 T00281028 $ =
2017-11-19 15:54 METAR KFZY 192054Z AUTO 29016G22KT 10SM BKN033 BKN042 OVC050 03/M03 A2963 RMK
                 AO2 PK WND 28026/1955 SLP037 60001 T00331028 53021 $ =
2017-11-19 14:54 METAR KFZY 191954Z AUTO 30011G22KT 10SM BKN037 OVC047 03/M02 A2960 RMK AO2
                 UPB1856E1859RAB1859E37SNE1856B11E20 SLP025 P0000 T00331017 $ =
2017-11-19 13:54 METAR KFZY 191854Z AUTO 29016G21KT 9SM -SN BKN037 OVC045 03/M02 A2959 RMK AO2 PK
                 WND 30026/1830 UPE1756B24E35RAB29E38SNB1756E24B30E31B38 SLP021 P0001 T00281022 $
                 =
2017-11-19 13:22 METAR KFZY 191822Z AUTO 28011G22KT 8SM -SN SCT024 BKN033 OVC045 03/M02 A2957 RMK
                 AO2 UPE1756SNB1756 P0000 T00281017 $ =
2017-11-19 12:54 METAR KFZY 191754Z AUTO 29012KT 9SM UP BKN024 OVC028 02/M01 A2957 RMK AO2
                 RAB06E40UPB11SNE06B40E49 SLP015 P0000 60003 T00221011 10022 20006 51021 $ =
2017-11-19 11:54 METAR KFZY 191654Z AUTO 30014G23KT 6SM -SN OVC023 02/M01 A2956 RMK AO2
                 RAB1559E12B37E41UPB12E37SNB23E33B41 SLP011 P0000 T00221011 $ =
2017-11-19 10:54 METAR KFZY 191554Z AUTO 30011G22KT 10SM OVC025 02/M02 A2955 RMK AO2
                 RAB49E54SNE49 SLP009 P0001 T00171017 $ =
2017-11-19 10:00 METAR KFZY 191500Z AUTO 31014G24KT 3SM -SN BKN024 OVC031 02/M02 A2951 RMK AO2
                 P0000 T00171017 $ =
2017-11-19 09:54 METAR KFZY 191454Z AUTO 31018G25KT 2SM -SN BKN026 OVC033 02/M01 A2951 RMK AO2 PK
                 WND 32030/1430 RAB02E05 SLP995 P0000 60002 T00171011 51059 $ =
2017-11-19 09:46 METAR KFZY 191446Z AUTO 31018G25KT 1 1/2SM -SN BR OVC025 01/M01 A2950 RMK AO2 PK
                 WND 32030/1430 RAB02E05 P0000 T00111011 $ =
2017-11-19 09:36 METAR KFZY 191436Z AUTO 30016G30KT 2 1/2SM -SN BR BKN023 OVC029 01/M01 A2949 RMK
                 AO2 PK WND 32030/1430 RAB02E05 P0000 T00111011 $ =
2017-11-19 08:54 METAR KFZY 191354Z AUTO 30014G24KT 3SM -SN BR SCT015 BKN021 OVC035 01/M01 A2947
                 RMK AO2 PK WND 30030/1328 SLP981 P0000 T00111006 $ =
2017-11-19 08:44 METAR KFZY 191344Z AUTO 31017G25KT 2 1/2SM -SN BR FEW010 BKN019 OVC036 01/M01
                 A2946 RMK AO2 PK WND 30030/1328 PRESRR P0000 T00111011 $ =
2017-11-19 08:37 METAR KFZY 191337Z AUTO 30015G30KT 3SM -SN BR SCT008 BKN014 OVC019 01/M01 A2945
                 RMK AO2 PK WND 30030/1328 P0000 T00111006 $ =
2017-11-19 08:29 METAR KFZY 191329Z AUTO 30020G30KT 2SM -SN BR SCT006 BKN012 OVC017 01/M01 A2944
                 RMK AO2 PK WND 30030/1328 VIS 1 1/4V5 PRESRR P0000 T00111006 $ =
2017-11-19 08:26 METAR KFZY 191326Z AUTO 30016G29KT 1 3/4SM -SN BR BKN007 OVC015 01/M01 A2944 RMK
                 AO2 PK WND 30029/1320 PRESRR P0000 T00111006 $ =
2017-11-19 08:24 METAR KFZY 191324Z AUTO 30017G29KT 1 1/4SM -SN BR SCT007 OVC015 01/M01 A2943 RMK
                 AO2 PK WND 30029/1320 P0000 T00111006 $ =
2017-11-19 08:14 METAR KFZY 191314Z AUTO 30016G26KT 3/4SM -SN BR BKN009 OVC015 01/00 A2942 RMK
                 AO2 PK WND 30026/1314 PRESRR P0000 T00060000 $ =
2017-11-19 08:02 METAR KFZY 191302Z AUTO 30017G25KT 1SM -SN BR BKN009 OVC017 01/M01 A2941 RMK AO2
                 P0000 T00111006 $ =
2017-11-19 07:54 METAR KFZY 191254Z AUTO 30019G29KT 3/4SM -SN BR BKN009 OVC015 01/M01 A2940 RMK
                 AO2 PK WND 29029/1214 PRESRR SLP959 P0002 T00111006 $ =
2017-11-19 07:46 METAR KFZY 191246Z AUTO 31021G29KT 3/4SM -SN BR BKN009 OVC015 01/M01 A2939 RMK
                 AO2 PK WND 29029/1214 PRESRR P0002 T00111006 $ =
2017-11-19 07:22 METAR KFZY 191222Z AUTO 30018G29KT 1 1/2SM -SN BR BKN007 OVC011 01/00 A2935 RMK
                 AO2 PK WND 29029/1214 P0002 T00110000 $ =
2017-11-19 06:54 METAR KFZY 191154Z AUTO 29015G24KT 2SM -SN BR BKN007 OVC012 01/00 A2933 RMK AO2
                 PK WND 29027/1143 RAE28SNB28 PRESRR SLP934 P0005 60028 70060 T00110000 10100
                 20011 51081 $ =
2017-11-19 06:52 METAR KFZY 191152Z AUTO 29015G27KT 2 1/2SM -SN BR BKN007 OVC012 02/01 A2933 RMK
                 AO2 PK WND 29027/1143 RAE28SNB28 PRESRR P0005 $ =
2017-11-19 05:54 METAR KFZY 191054Z AUTO 29017G26KT 7SM -RA OVC008 03/02 A2922 RMK AO2 PK WND
                 28040/1002 CIG 006V010 PRESRR SLP898 P0003 T00280017 $ =
2017-11-19 05:41 METAR KFZY 191041Z AUTO 29018G26KT 5SM -RA BR OVC006 03/02 A2920 RMK AO2 PK WND
                 28040/1002 CIG 005V010 PRESRR P0002 T00330022 $ =
2017-11-19 05:19 METAR KFZY 191019Z AUTO 29027G35KT 6SM -RA BR OVC005 04/03 A2916 RMK AO2 PK WND
                 28040/1002 PRESRR P0001 T00440028 $ =
2017-11-19 04:54 METAR KFZY 190954Z AUTO 26025G34KT 7SM -RA BKN004 OVC009 07/06 A2909 RMK AO2 PK
                 WND 23035/0936 PRESRR SLP852 P0004 T00670056 $ =
2017-11-19 04:24 METAR KFZY 190924Z AUTO 22014G22KT 5SM RA BR BKN009 BKN012 OVC019 09/08 A2904
                 RMK AO2 CIG 007V011 P0004 T00940078 $ =
2017-11-19 03:54 METAR KFZY 190854Z AUTO 21013G19KT 8SM -RA OVC013 09/08 A2904 RMK AO2 SLP834
                 P0010 60016 T00940083 56017 $ =
2017-11-19 03:39 METAR KFZY 190839Z AUTO 21009G16KT 3SM RA BR BKN014 OVC025 09/08 A2904 RMK AO2
                 P0009 T00940083 $ =
2017-11-19 03:25 METAR KFZY 190825Z AUTO 20009KT 5SM -RA BR SCT015 BKN024 OVC070 10/08 A2903 RMK
                 AO2 P0004 T01000083 $ =
2017-11-19 02:54 METAR KFZY 190754Z AUTO 17008KT 4SM -RA BR FEW019 BKN060 OVC070 09/08 A2904 RMK
                 AO2 RAB00 SLP834 P0006 T00940078 $ =

Support USWX by starting your Amazon purchase here.